createdAt,value
2019-02-10T00:00:34.709Z,1.30
2019-02-10T00:03:03.171Z,1.40
2019-02-10T00:05:31.615Z,1.20
2019-02-10T00:08:00.061Z,1.50
2019-02-10T00:10:28.556Z,1.37
2019-02-10T00:13:25.055Z,1.20
2019-02-10T00:15:53.880Z,1.80
2019-02-10T00:18:23.632Z,1.50
2019-02-10T00:20:52.062Z,1.60
2019-02-10T00:23:20.485Z,1.50
2019-02-10T00:25:48.919Z,1.40
2019-02-10T00:28:17.349Z,1.40
2019-02-10T00:30:45.776Z,1.27
2019-02-10T00:33:14.274Z,1.30
2019-02-10T00:35:42.702Z,1.10
2019-02-10T00:38:11.129Z,1.17
2019-02-10T00:40:39.622Z,1.50
2019-02-10T00:43:08.962Z,1.30
2019-02-10T00:45:37.380Z,1.30
2019-02-10T00:48:05.803Z,1.40
2019-02-10T00:50:34.306Z,2.10
2019-02-10T00:53:02.735Z,1.43
2019-02-10T00:55:31.159Z,1.50
2019-02-10T00:57:59.667Z,1.30
2019-02-10T01:00:28.150Z,1.20
2019-02-10T01:02:56.653Z,1.30
2019-02-10T01:05:25.074Z,1.60
2019-02-10T01:07:53.574Z,1.83
2019-02-10T01:10:24.725Z,1.80
2019-02-10T01:12:53.168Z,1.50
2019-02-10T01:15:21.595Z,1.43
2019-02-10T01:17:50.039Z,1.50
2019-02-10T01:20:18.536Z,1.60
2019-02-10T01:22:46.970Z,1.60
2019-02-10T01:25:15.377Z,1.20
2019-02-10T01:27:44.076Z,1.23
2019-02-10T01:30:14.836Z,1.80
2019-02-10T01:32:43.286Z,1.47
2019-02-10T01:35:11.756Z,1.90
2019-02-10T01:37:40.212Z,1.57
2019-02-10T01:40:10.170Z,1.50
2019-02-10T01:42:38.652Z,1.50
2019-02-10T01:45:09.912Z,1.67
2019-02-10T01:47:38.318Z,1.50
2019-02-10T01:50:10.980Z,1.60
2019-02-10T01:52:39.479Z,1.60
2019-02-10T01:55:10.519Z,1.43
2019-02-10T01:57:39.006Z,1.70
2019-02-10T02:00:12.905Z,1.50
2019-02-10T02:02:41.427Z,1.23
2019-02-10T02:05:10.106Z,1.43
2019-02-10T02:07:38.552Z,1.47
2019-02-10T02:10:09.764Z,1.40
2019-02-10T02:12:38.196Z,1.37
2019-02-10T02:15:14.589Z,1.60
2019-02-10T02:17:43.079Z,1.37
2019-02-10T02:20:13.228Z,1.47
2019-02-10T02:22:41.678Z,1.20
2019-02-10T02:25:11.942Z,1.30
2019-02-10T02:27:40.450Z,1.17
2019-02-10T02:30:14.377Z,1.37
2019-02-10T02:32:43.384Z,1.60
2019-02-10T02:35:11.931Z,1.20
2019-02-10T02:37:41.995Z,1.30
2019-02-10T02:40:11.675Z,1.67
2019-02-10T02:42:40.688Z,1.40
2019-02-10T02:45:11.201Z,1.30
2019-02-10T02:47:39.734Z,1.53
2019-02-10T02:50:10.764Z,1.50
2019-02-10T02:52:39.643Z,1.50
2019-02-10T02:55:10.097Z,1.47
2019-02-10T02:57:38.597Z,1.43
2019-02-10T03:00:09.068Z,1.30
2019-02-10T03:02:37.488Z,1.10
2019-02-10T03:05:08.627Z,1.27
2019-02-10T03:07:37.069Z,1.33
2019-02-10T03:10:07.339Z,1.40
2019-02-10T03:12:35.762Z,1.23
2019-02-10T03:15:05.548Z,1.23
2019-02-10T03:17:34.065Z,1.50
2019-02-10T03:20:02.490Z,1.37
2019-02-10T03:22:30.925Z,1.20
2019-02-10T03:24:59.337Z,1.30
2019-02-10T03:27:27.764Z,1.37
2019-02-10T03:29:56.196Z,1.30
2019-02-10T03:32:24.625Z,1.10
2019-02-10T03:34:53.041Z,1.20
2019-02-10T03:37:27.330Z,1.37
2019-02-10T03:39:51.842Z,1.30
2019-02-10T03:42:20.327Z,1.20
2019-02-10T03:44:48.750Z,1.20
2019-02-10T03:47:23.662Z,1.30
2019-02-10T03:49:52.070Z,1.40
2019-02-10T03:52:20.489Z,1.13
2019-02-10T03:54:48.899Z,1.20
2019-02-10T03:57:17.618Z,1.40
2019-02-10T03:59:46.110Z,1.20
2019-02-10T04:02:14.530Z,1.37
2019-02-10T04:04:42.961Z,1.30
2019-02-10T04:07:11.370Z,1.10
2019-02-10T04:09:39.765Z,1.20
2019-02-10T04:12:08.198Z,1.00
2019-02-10T04:14:36.634Z,1.00
2019-02-10T04:17:05.172Z,1.30
2019-02-10T04:19:33.605Z,1.20
2019-02-10T04:22:02.043Z,1.30
2019-02-10T04:24:30.439Z,1.30
2019-02-10T04:26:58.871Z,1.30
2019-02-10T04:29:27.264Z,1.30
2019-02-10T04:31:55.706Z,1.33
2019-02-10T04:34:24.111Z,1.50
2019-02-10T04:36:52.529Z,1.20
2019-02-10T04:39:21.009Z,1.30
2019-02-10T04:41:49.438Z,1.40
2019-02-10T04:44:17.870Z,1.30
2019-02-10T04:46:46.302Z,1.30
2019-02-10T04:49:14.711Z,1.10
2019-02-10T04:51:43.116Z,1.33
2019-02-10T04:54:11.578Z,1.30
2019-02-10T04:56:41.974Z,1.17
2019-02-10T04:59:10.383Z,1.17
2019-02-10T05:01:38.797Z,1.37
2019-02-10T05:04:07.227Z,1.40
2019-02-10T05:06:35.651Z,1.33
2019-02-10T05:09:05.068Z,1.40
2019-02-10T05:11:33.476Z,1.30
2019-02-10T05:14:02.044Z,1.63
2019-02-10T05:16:30.479Z,1.10
2019-02-10T05:18:59.013Z,1.60
2019-02-10T05:21:27.439Z,1.60
2019-02-10T05:24:03.164Z,1.60
2019-02-10T05:26:26.027Z,1.50
2019-02-10T05:28:54.486Z,1.43
2019-02-10T05:31:22.931Z,1.43
2019-02-10T05:33:51.350Z,1.70
2019-02-10T05:36:19.913Z,1.53
2019-02-10T05:38:48.356Z,1.77
2019-02-10T05:41:16.795Z,1.60
2019-02-10T05:43:45.269Z,1.40
2019-02-10T05:46:13.789Z,1.50
2019-02-10T05:48:42.216Z,1.30
2019-02-10T05:51:10.661Z,1.20
2019-02-10T05:53:39.092Z,1.40
2019-02-10T05:56:07.518Z,1.50
2019-02-10T05:58:35.963Z,1.30
2019-02-10T06:01:40.851Z,1.73
2019-02-10T06:04:09.283Z,1.47
2019-02-10T06:06:37.712Z,1.50
2019-02-10T06:09:06.148Z,1.70
2019-02-10T06:11:34.567Z,1.73
2019-02-10T06:14:02.985Z,1.43
2019-02-10T06:16:31.479Z,1.50
2019-02-10T06:19:06.579Z,1.63
2019-02-10T06:21:33.477Z,1.53
2019-02-10T06:24:12.685Z,1.47
2019-02-10T06:26:41.530Z,1.90
2019-02-10T06:29:10.251Z,1.60
2019-02-10T06:31:38.755Z,1.63
2019-02-10T06:34:07.177Z,1.60
2019-02-10T06:36:35.620Z,1.60
2019-02-10T06:39:09.964Z,1.73
2019-02-10T06:41:39.325Z,1.60
2019-02-10T06:44:07.730Z,1.50
2019-02-10T06:46:43.879Z,1.67
2019-02-10T06:49:12.316Z,1.57
2019-02-10T06:51:40.740Z,1.63
2019-02-10T06:54:09.160Z,1.53
2019-02-10T06:56:37.577Z,1.13
2019-02-10T06:59:09.658Z,1.30
2019-02-10T07:01:39.704Z,1.40
2019-02-10T07:04:11.399Z,1.60
2019-02-10T07:06:39.862Z,1.10
2019-02-10T07:09:08.345Z,1.70
2019-02-10T07:11:39.238Z,1.50
2019-02-10T07:14:10.746Z,1.20
2019-02-10T07:16:45.121Z,1.50
2019-02-10T07:19:42.467Z,1.77
2019-02-10T07:22:38.734Z,1.63
2019-02-10T07:25:17.254Z,1.40
2019-02-10T07:27:48.628Z,1.33
2019-02-10T07:30:20.105Z,1.20
2019-02-10T07:32:54.225Z,1.70
2019-02-10T07:35:57.533Z,1.27
2019-02-10T07:38:52.977Z,1.50
2019-02-10T07:41:39.457Z,1.50
2019-02-10T07:44:13.799Z,1.40
2019-02-10T07:47:02.888Z,1.63
2019-02-10T07:49:56.671Z,1.43
2019-02-10T07:52:45.991Z,1.80
2019-02-10T07:55:38.629Z,1.40
2019-02-10T08:01:22.077Z,1.10
2019-02-10T08:03:57.620Z,1.37
2019-02-10T08:06:34.947Z,1.27
2019-02-10T08:09:15.455Z,1.50
2019-02-10T08:11:46.942Z,1.10
2019-02-10T08:14:28.980Z,1.70
2019-02-10T08:17:32.420Z,1.70
2019-02-10T08:20:20.433Z,1.80
2019-02-10T08:23:08.913Z,1.70
2019-02-10T08:26:00.019Z,1.40
2019-02-10T08:28:31.541Z,1.37
2019-02-10T08:31:30.454Z,1.47
2019-02-10T08:34:16.797Z,1.57
2019-02-10T08:37:06.400Z,1.40
2019-02-10T08:39:49.328Z,1.47
2019-02-10T08:42:26.615Z,1.50
2019-02-10T08:45:03.810Z,1.50
2019-02-10T08:47:50.354Z,1.40
2019-02-10T08:50:44.201Z,1.60
2019-02-10T08:53:23.310Z,1.60
2019-02-10T08:55:58.504Z,1.40
2019-02-10T08:58:36.103Z,1.67
2019-02-10T09:01:11.143Z,1.50
2019-02-10T09:03:48.881Z,1.50
2019-02-10T09:06:17.480Z,1.60
2019-02-10T09:08:47.542Z,1.47
2019-02-10T09:11:29.650Z,1.53
2019-02-10T09:14:04.991Z,1.27
2019-02-10T09:16:33.666Z,1.40
2019-02-10T09:19:02.248Z,1.67
2019-02-10T09:21:31.097Z,1.50
2019-02-10T09:24:10.062Z,1.37
2019-02-10T09:26:54.301Z,1.40
2019-02-10T09:29:22.730Z,1.60
2019-02-10T09:31:51.132Z,1.53
2019-02-10T09:34:19.579Z,1.50
2019-02-10T09:36:49.689Z,1.30
2019-02-10T09:39:18.125Z,1.50
2019-02-10T09:41:46.533Z,1.57
2019-02-10T09:44:16.148Z,1.70
2019-02-10T09:46:44.557Z,1.50
2019-02-10T09:49:13.022Z,1.40
2019-02-10T09:51:41.461Z,1.40
2019-02-10T09:54:10.786Z,1.60
2019-02-10T09:56:39.264Z,1.70
2019-02-10T09:59:07.715Z,1.63
2019-02-10T10:01:36.160Z,1.40
2019-02-10T10:04:04.627Z,1.70
2019-02-10T10:06:33.072Z,1.23
2019-02-10T10:09:01.531Z,1.40
2019-02-10T10:11:29.991Z,1.23
2019-02-10T10:13:58.434Z,1.60
2019-02-10T10:16:26.880Z,1.37
2019-02-10T10:18:55.366Z,1.20
2019-02-10T10:21:23.861Z,1.50
2019-02-10T10:23:52.305Z,1.60
2019-02-10T10:26:20.717Z,1.40
2019-02-10T10:28:49.145Z,1.73
2019-02-10T10:31:17.587Z,1.90
2019-02-10T10:33:45.995Z,1.30
2019-02-10T10:36:14.430Z,1.67
2019-02-10T10:38:42.885Z,1.60
2019-02-10T10:41:11.305Z,1.90
2019-02-10T10:43:39.706Z,1.30
2019-02-10T10:46:08.196Z,1.53
2019-02-10T10:48:36.654Z,1.70
2019-02-10T10:51:05.136Z,1.40
2019-02-10T10:53:33.551Z,1.60
2019-02-10T10:56:02.009Z,1.50
2019-02-10T10:58:30.446Z,1.50
2019-02-10T11:00:58.864Z,1.70
2019-02-10T11:03:27.289Z,1.37
2019-02-10T11:05:55.707Z,1.20
2019-02-10T11:08:24.145Z,1.30
2019-02-10T11:10:52.556Z,1.50
2019-02-10T11:13:40.433Z,1.47
2019-02-10T11:16:08.900Z,1.70
2019-02-10T11:18:37.328Z,1.50
2019-02-10T11:21:05.885Z,1.27
2019-02-10T11:23:34.324Z,1.60
2019-02-10T11:26:02.780Z,1.57
2019-02-10T11:28:31.207Z,1.50
2019-02-10T11:30:59.673Z,1.43
2019-02-10T11:33:28.145Z,1.60
2019-02-10T11:35:56.599Z,1.47
2019-02-10T11:38:25.023Z,1.50
2019-02-10T11:40:53.434Z,1.77
2019-02-10T11:43:21.946Z,1.80
2019-02-10T11:45:50.374Z,1.40
2019-02-10T11:48:18.823Z,1.50
2019-02-10T11:50:47.246Z,1.80
2019-02-10T11:53:15.686Z,1.80
2019-02-10T11:55:44.094Z,1.70
2019-02-10T11:58:14.506Z,1.60
2019-02-10T12:00:42.948Z,1.73
2019-02-10T12:03:11.343Z,1.50
2019-02-10T12:05:39.836Z,1.70
2019-02-10T12:08:17.268Z,1.70
2019-02-10T12:10:45.871Z,1.70
2019-02-10T12:13:14.489Z,1.50
2019-02-10T12:15:43.014Z,1.60
2019-02-10T12:18:11.748Z,1.40
2019-02-10T12:20:40.514Z,1.33
2019-02-10T12:23:09.038Z,1.30
2019-02-10T12:25:37.544Z,1.43
2019-02-10T12:28:06.013Z,1.47
2019-02-10T12:30:55.792Z,1.30
2019-02-10T12:33:24.253Z,1.80
2019-02-10T12:35:58.176Z,1.50
2019-02-10T12:38:22.848Z,1.50
2019-02-10T12:40:51.267Z,1.30
2019-02-10T12:43:19.703Z,1.43
2019-02-10T12:45:52.768Z,1.37
2019-02-10T12:48:21.281Z,1.40
2019-02-10T12:50:49.722Z,1.17
2019-02-10T12:53:18.134Z,1.33
2019-02-10T12:55:46.563Z,1.50
2019-02-10T12:58:14.997Z,1.27
2019-02-10T13:00:43.432Z,1.07
2019-02-10T13:03:11.962Z,1.33
2019-02-10T13:05:40.398Z,1.30
2019-02-10T13:08:08.810Z,1.40
2019-02-10T13:10:37.238Z,1.27
2019-02-10T13:13:05.794Z,1.20
2019-02-10T13:15:34.314Z,1.40
2019-02-10T13:18:02.800Z,1.40
2019-02-10T13:20:31.253Z,1.20
2019-02-10T13:22:59.790Z,1.10
2019-02-10T13:25:28.870Z,1.30
2019-02-10T13:28:01.214Z,1.23
2019-02-10T13:30:30.603Z,1.30
2019-02-10T13:32:59.080Z,1.20
2019-02-10T13:35:27.502Z,1.30
2019-02-10T13:37:56.848Z,1.10
2019-02-10T13:40:25.268Z,2.03
2019-02-10T13:42:53.726Z,1.50
2019-02-10T13:45:22.123Z,1.30
2019-02-10T13:47:51.612Z,1.43
2019-02-10T13:50:20.748Z,1.57
2019-02-10T13:52:49.311Z,1.10
2019-02-10T13:55:17.896Z,1.00
2019-02-10T13:57:46.391Z,1.20
2019-02-10T14:00:17.522Z,1.63
2019-02-10T14:02:45.958Z,1.30
2019-02-10T14:05:14.478Z,1.30
2019-02-10T14:07:42.893Z,1.57
2019-02-10T14:10:24.927Z,1.77
2019-02-10T14:12:46.558Z,1.37
2019-02-10T14:15:17.242Z,1.30
2019-02-10T14:17:45.660Z,1.40
2019-02-10T14:20:16.697Z,1.40
2019-02-10T14:22:45.174Z,1.27
2019-02-10T14:25:13.788Z,1.00
2019-02-10T14:27:42.201Z,1.40
2019-02-10T14:30:17.241Z,1.30
2019-02-10T14:32:45.805Z,1.30
2019-02-10T14:35:14.204Z,1.10
2019-02-10T14:37:42.664Z,1.50
2019-02-10T14:40:11.550Z,1.10
2019-02-10T14:42:40.186Z,1.10
2019-02-10T14:45:13.604Z,1.40
2019-02-10T14:47:41.995Z,4.43
2019-02-10T14:50:13.353Z,1.93
2019-02-10T14:52:41.793Z,1.80
2019-02-10T14:55:10.309Z,1.40
2019-02-10T14:57:38.783Z,1.43
2019-02-10T15:00:10.512Z,2.83
2019-02-10T15:02:38.912Z,3.13
2019-02-10T15:05:07.881Z,2.70
2019-02-10T15:07:36.322Z,3.00
2019-02-10T15:10:07.946Z,2.47
2019-02-10T15:12:36.364Z,2.30
2019-02-10T15:15:07.633Z,2.33
2019-02-10T15:17:36.114Z,2.50
2019-02-10T15:20:06.508Z,2.40
2019-02-10T15:22:34.952Z,2.57
2019-02-10T15:25:03.938Z,2.43
2019-02-10T15:27:32.349Z,2.60
2019-02-10T15:30:00.795Z,2.30
2019-02-10T15:32:29.267Z,2.53
2019-02-10T15:34:57.692Z,2.20
2019-02-10T15:37:26.137Z,2.30
2019-02-10T15:39:54.689Z,2.60
2019-02-10T15:42:25.025Z,2.13
2019-02-10T15:44:53.592Z,1.80
2019-02-10T15:47:22.024Z,2.03
2019-02-10T15:49:50.704Z,1.80
2019-02-10T15:52:19.131Z,1.90
2019-02-10T15:54:47.576Z,1.77
2019-02-10T15:57:15.988Z,1.40
2019-02-10T15:59:44.423Z,1.80
2019-02-10T16:02:15.096Z,1.77
2019-02-10T16:04:43.792Z,1.80
2019-02-10T16:07:12.240Z,1.60
2019-02-10T16:09:40.650Z,1.70
2019-02-10T16:12:09.149Z,1.70
2019-02-10T16:14:37.574Z,1.90
2019-02-10T16:17:05.986Z,1.53
2019-02-10T16:19:34.416Z,2.33
2019-02-10T16:22:08.947Z,1.27
2019-02-10T16:24:37.377Z,1.13
2019-02-10T16:27:05.805Z,1.33
2019-02-10T16:29:34.217Z,1.50
2019-02-10T16:32:02.661Z,1.60
2019-02-10T16:34:31.339Z,1.33
2019-02-10T16:36:59.748Z,1.30
2019-02-10T16:39:28.158Z,1.03
2019-02-10T16:42:05.092Z,1.30
2019-02-10T16:44:33.562Z,1.07
2019-02-10T16:47:02.001Z,1.20
2019-02-10T16:49:30.497Z,1.17
2019-02-10T16:51:58.929Z,1.27
2019-02-10T16:54:27.350Z,1.00
2019-02-10T16:56:55.774Z,1.23
2019-02-10T16:59:24.177Z,1.30
2019-02-10T17:01:52.618Z,1.20
2019-02-10T17:04:21.054Z,1.30
2019-02-10T17:06:49.512Z,1.20
2019-02-10T17:09:17.941Z,1.17
2019-02-10T17:11:46.341Z,1.20
2019-02-10T17:14:14.766Z,1.65
2019-02-10T17:16:50.168Z,0.80
2019-02-10T17:19:18.591Z,1.13
2019-02-10T17:21:47.034Z,1.23
2019-02-10T17:24:15.454Z,1.00
2019-02-10T17:26:43.866Z,1.13
2019-02-10T17:29:12.295Z,1.10
2019-02-10T17:31:40.688Z,1.43
2019-02-10T17:34:09.129Z,1.13
2019-02-10T17:36:37.534Z,1.10
2019-02-10T17:39:07.259Z,1.10
2019-02-10T17:41:35.675Z,1.10
2019-02-10T17:44:04.075Z,1.03
2019-02-10T17:46:32.494Z,0.90
2019-02-10T17:49:01.224Z,0.80
2019-02-10T17:51:29.755Z,1.47
2019-02-10T17:53:58.180Z,1.63
2019-02-10T17:56:26.608Z,1.37
2019-02-10T17:58:55.066Z,1.30
2019-02-10T18:01:23.526Z,1.33
2019-02-10T18:03:51.937Z,1.50
2019-02-10T18:06:20.365Z,1.20
2019-02-10T18:08:48.797Z,1.30
2019-02-10T18:11:17.262Z,1.30
2019-02-10T18:13:45.722Z,1.30
2019-02-10T18:16:21.626Z,1.03
2019-02-10T18:18:57.070Z,1.70
2019-02-10T18:21:33.105Z,1.10
2019-02-10T18:24:08.882Z,1.47
2019-02-10T18:26:47.899Z,1.47
2019-02-10T18:29:17.946Z,1.60
2019-02-10T18:31:50.697Z,1.10
2019-02-10T18:34:20.766Z,1.37
2019-02-10T18:37:07.008Z,1.07
2019-02-10T18:39:49.391Z,1.20
2019-02-10T18:42:25.330Z,1.40
2019-02-10T18:45:01.051Z,1.60
2019-02-10T18:47:31.171Z,1.77
2019-02-10T18:50:01.238Z,1.30
2019-02-10T18:52:40.549Z,1.47
2019-02-10T18:55:19.359Z,1.47
2019-02-10T18:57:49.424Z,1.33
2019-02-10T19:00:19.493Z,1.27
2019-02-10T19:02:49.565Z,1.00
2019-02-10T19:05:22.094Z,1.20
2019-02-10T19:08:07.150Z,1.60
2019-02-10T19:10:37.238Z,1.20
2019-02-10T19:13:10.194Z,1.00
2019-02-10T19:15:40.319Z,1.30
2019-02-10T19:18:13.299Z,1.30
2019-02-10T19:21:01.140Z,1.47
2019-02-10T19:23:31.212Z,1.10
2019-02-10T19:26:19.504Z,1.30
2019-02-10T19:29:01.343Z,0.90
2019-02-10T19:31:40.390Z,1.10
2019-02-10T19:34:10.472Z,0.90
2019-02-10T19:36:49.320Z,1.00
2019-02-10T19:39:28.453Z,1.47
2019-02-10T19:41:58.576Z,1.10
2019-02-10T19:44:28.674Z,1.60
2019-02-10T19:47:04.576Z,0.87
2019-02-10T19:49:37.506Z,1.03
2019-02-10T19:52:19.607Z,0.97
2019-02-10T19:54:55.715Z,1.07
2019-02-10T19:57:37.494Z,0.80
2019-02-10T20:00:16.446Z,0.90
2019-02-10T20:02:52.246Z,0.93
2019-02-10T20:05:38.380Z,0.90
2019-02-10T20:08:08.449Z,1.17
2019-02-10T20:10:50.947Z,0.90
2019-02-10T20:13:29.894Z,0.90
2019-02-10T20:15:59.966Z,1.03
2019-02-10T20:18:46.333Z,1.10
2019-02-10T20:21:16.405Z,1.10
2019-02-10T20:24:04.756Z,0.70
2019-02-10T20:26:43.388Z,1.00
2019-02-10T20:29:13.453Z,1.00
2019-02-10T20:31:46.027Z,1.10
2019-02-10T20:34:30.904Z,1.10
2019-02-10T20:37:17.094Z,1.10
2019-02-10T20:40:03.577Z,0.90
2019-02-10T20:42:42.725Z,0.90
2019-02-10T20:45:21.654Z,0.80
2019-02-10T20:48:09.871Z,1.00
2019-02-10T20:50:42.930Z,1.10
2019-02-10T20:53:18.948Z,1.00
2019-02-10T20:56:01.267Z,1.30
2019-02-10T20:58:31.324Z,1.00
2019-02-10T21:01:16.327Z,1.00
2019-02-10T21:03:49.428Z,0.90
2019-02-10T21:06:19.528Z,0.90
2019-02-10T21:08:49.573Z,0.80
2019-02-10T21:11:22.555Z,0.90
2019-02-10T21:13:55.286Z,0.90
2019-02-10T21:16:25.341Z,0.70
2019-02-10T21:18:55.418Z,0.80
2019-02-10T21:21:34.620Z,0.70
2019-02-10T21:24:23.167Z,0.80
2019-02-10T21:27:08.474Z,0.93
2019-02-10T21:29:54.972Z,1.00
2019-02-10T21:32:27.588Z,0.70
2019-02-10T21:35:15.698Z,0.90
2019-02-10T21:37:48.509Z,0.90
2019-02-10T21:40:24.129Z,1.17
2019-02-10T21:42:56.620Z,1.00
2019-02-10T21:45:29.582Z,0.70
2019-02-10T21:48:04.256Z,0.80
2019-02-10T21:50:32.823Z,0.80
2019-02-10T21:53:01.231Z,1.27
2019-02-10T21:55:29.662Z,0.90
2019-02-10T21:57:58.113Z,0.80
2019-02-10T22:00:26.573Z,0.80
2019-02-10T22:02:55.050Z,0.90
2019-02-10T22:05:23.526Z,0.77
2019-02-10T22:07:51.948Z,0.90
2019-02-10T22:10:22.338Z,1.00
2019-02-10T22:12:50.789Z,1.30
2019-02-10T22:15:19.218Z,1.10
2019-02-10T22:17:47.637Z,0.93
2019-02-10T22:20:16.054Z,0.80
2019-02-10T22:22:44.471Z,1.00
2019-02-10T22:25:13.004Z,0.80
2019-02-10T22:27:41.428Z,0.93
2019-02-10T22:30:17.009Z,0.70
2019-02-10T22:32:45.457Z,0.90
2019-02-10T22:35:13.891Z,0.80
2019-02-10T22:37:43.316Z,1.10
2019-02-10T22:40:12.387Z,1.00
2019-02-10T22:42:45.906Z,0.80
2019-02-10T22:45:14.018Z,0.90
2019-02-10T22:47:42.478Z,0.80
2019-02-10T22:50:13.483Z,1.10
2019-02-10T22:52:41.899Z,1.40
2019-02-10T22:55:10.396Z,1.00
2019-02-10T22:57:41.014Z,0.97
2019-02-10T23:00:16.867Z,1.20
2019-02-10T23:02:45.284Z,0.90
2019-02-10T23:05:13.762Z,0.90
2019-02-10T23:07:43.184Z,0.70
2019-02-10T23:10:11.599Z,0.70
2019-02-10T23:12:40.022Z,1.10
2019-02-10T23:15:08.459Z,1.00
2019-02-10T23:17:36.896Z,0.80
2019-02-10T23:20:06.402Z,0.90
2019-02-10T23:22:35.820Z,0.80
2019-02-10T23:25:04.583Z,0.80
2019-02-10T23:27:32.991Z,0.87
2019-02-10T23:30:01.399Z,0.70
2019-02-10T23:32:29.853Z,1.23
2019-02-10T23:34:58.262Z,0.90
2019-02-10T23:37:26.711Z,0.77
2019-02-10T23:39:55.164Z,0.80
2019-02-10T23:42:23.592Z,0.93
2019-02-10T23:44:51.999Z,1.10
2019-02-10T23:47:20.413Z,1.07
2019-02-10T23:49:48.854Z,0.83
2019-02-10T23:52:17.312Z,1.00
2019-02-10T23:54:45.717Z,0.90
2019-02-10T23:57:14.128Z,1.00
2019-02-10T23:59:42.568Z,0.80
